createdAt,value
2023-05-20T00:00:59.395Z,67.38
2023-05-20T00:03:27.704Z,66.84
2023-05-20T00:05:57.242Z,67.61
2023-05-20T00:08:25.396Z,67.78
2023-05-20T00:10:53.540Z,67.77
2023-05-20T00:13:21.640Z,67.59
2023-05-20T00:15:49.817Z,67.41
2023-05-20T00:18:17.960Z,67.23
2023-05-20T00:20:46.182Z,67.87
2023-05-20T00:23:15.751Z,67.72
2023-05-20T00:25:43.885Z,67.73
2023-05-20T00:28:12.006Z,67.68
2023-05-20T00:30:41.824Z,68.10
2023-05-20T00:33:10.237Z,68.05
2023-05-20T00:35:38.398Z,67.93
2023-05-20T00:38:06.793Z,67.92
2023-05-20T00:40:36.280Z,68.16
2023-05-20T00:43:04.399Z,67.82
2023-05-20T00:45:33.674Z,67.82
2023-05-20T00:48:04.042Z,68.21
2023-05-20T00:50:33.347Z,68.03
2023-05-20T00:53:01.685Z,68.57
2023-05-20T00:55:30.173Z,68.19
2023-05-20T00:57:59.948Z,68.46
2023-05-20T01:00:28.138Z,68.45
2023-05-20T01:02:57.445Z,67.79
2023-05-20T01:05:25.791Z,67.71
2023-05-20T01:07:54.076Z,68.22
2023-05-20T01:10:25.852Z,68.15
2023-05-20T01:13:02.146Z,68.37
2023-05-20T01:15:32.424Z,68.25
2023-05-20T01:18:05.990Z,68.43
2023-05-20T01:20:36.285Z,68.31
2023-05-20T01:23:05.775Z,68.45
2023-05-20T01:25:34.216Z,69.20
2023-05-20T01:28:02.964Z,68.78
2023-05-20T01:30:38.348Z,68.89
2023-05-20T01:33:12.230Z,69.04
2023-05-20T01:35:42.637Z,68.59
2023-05-20T01:38:13.704Z,68.69
2023-05-20T01:40:44.149Z,68.60
2023-05-20T01:43:15.100Z,68.53
2023-05-20T01:45:45.559Z,68.93
2023-05-20T01:48:13.992Z,68.89
2023-05-20T01:50:42.386Z,69.15
2023-05-20T01:53:13.259Z,69.05
2023-05-20T01:55:41.446Z,69.36
2023-05-20T01:58:09.606Z,69.16
2023-05-20T02:00:37.796Z,68.90
2023-05-20T02:03:06.042Z,69.04
2023-05-20T02:05:34.490Z,68.91
2023-05-20T02:08:02.759Z,69.06
2023-05-20T02:10:32.322Z,69.60
2023-05-20T02:13:00.520Z,69.35
2023-05-20T02:15:28.712Z,69.39
2023-05-20T02:17:58.016Z,69.90
2023-05-20T02:20:26.434Z,69.23
2023-05-20T02:22:54.557Z,69.15
2023-05-20T02:25:22.718Z,69.55
2023-05-20T02:27:52.286Z,69.75
2023-05-20T02:30:20.512Z,69.71
2023-05-20T02:32:48.708Z,69.29
2023-05-20T02:35:18.109Z,69.73
2023-05-20T02:37:48.282Z,69.64
2023-05-20T02:40:16.620Z,69.61
2023-05-20T02:42:44.768Z,70.28
2023-05-20T02:45:14.313Z,69.75
2023-05-20T02:47:42.493Z,70.53
2023-05-20T02:50:11.368Z,70.29
2023-05-20T02:52:39.942Z,69.67
2023-05-20T02:55:09.163Z,69.63
2023-05-20T02:57:38.473Z,70.24
2023-05-20T03:00:10.929Z,69.96
2023-05-20T03:02:40.763Z,69.85
2023-05-20T03:05:10.731Z,70.34
2023-05-20T03:07:38.885Z,70.62
2023-05-20T03:10:09.348Z,70.69
2023-05-20T03:12:37.605Z,70.47
2023-05-20T03:15:06.783Z,69.87
2023-05-20T03:17:34.974Z,70.04
2023-05-20T03:20:08.178Z,70.29
2023-05-20T03:22:36.341Z,70.88
2023-05-20T03:25:06.077Z,70.55
2023-05-20T03:27:34.479Z,71.38
2023-05-20T03:30:02.625Z,71.83
2023-05-20T03:32:30.832Z,72.36
2023-05-20T03:35:00.040Z,72.69
2023-05-20T03:37:29.575Z,72.50
2023-05-20T03:39:57.702Z,73.15
2023-05-20T03:42:25.853Z,72.80
2023-05-20T03:44:53.963Z,72.46
2023-05-20T03:47:22.121Z,72.25
2023-05-20T03:49:50.256Z,72.74
2023-05-20T03:52:18.430Z,72.22
2023-05-20T03:54:48.116Z,72.57
2023-05-20T03:57:16.661Z,71.72
2023-05-20T03:59:44.800Z,71.99
2023-05-20T04:02:13.143Z,72.34
2023-05-20T04:04:43.032Z,71.81
2023-05-20T04:07:11.333Z,71.08
2023-05-20T04:09:40.551Z,71.67
2023-05-20T04:12:10.189Z,72.09
2023-05-20T04:14:38.935Z,70.83
2023-05-20T04:17:07.352Z,70.77
2023-05-20T04:19:36.273Z,71.19
2023-05-20T04:22:05.792Z,70.49
2023-05-20T04:24:33.968Z,70.99
2023-05-20T04:27:02.320Z,70.71
2023-05-20T04:29:34.375Z,69.89
2023-05-20T04:32:03.610Z,69.39
2023-05-20T04:34:35.081Z,69.35
2023-05-20T04:37:03.238Z,68.89
2023-05-20T04:39:31.480Z,68.73
2023-05-20T04:41:59.594Z,67.96
2023-05-20T04:44:28.253Z,68.80
2023-05-20T04:46:58.034Z,68.50
2023-05-20T04:49:26.952Z,68.32
2023-05-20T04:51:55.512Z,68.82
2023-05-20T04:54:25.138Z,69.08
2023-05-20T04:56:53.352Z,67.85
2023-05-20T04:59:21.514Z,67.22
2023-05-20T05:01:49.680Z,66.58
2023-05-20T05:04:19.260Z,66.61
2023-05-20T05:06:49.440Z,66.21
2023-05-20T05:09:17.614Z,65.89
2023-05-20T05:11:45.810Z,66.29
2023-05-20T05:14:14.013Z,66.62
2023-05-20T05:16:42.186Z,66.22
2023-05-20T05:19:10.372Z,66.28
2023-05-20T05:21:39.902Z,66.65
2023-05-20T05:24:08.531Z,66.79
2023-05-20T05:26:36.706Z,66.21
2023-05-20T05:29:05.102Z,66.08
2023-05-20T05:31:33.238Z,66.24
2023-05-20T05:34:01.431Z,65.64
2023-05-20T05:36:29.642Z,66.07
2023-05-20T05:38:59.087Z,65.09
2023-05-20T05:41:27.216Z,64.54
2023-05-20T05:43:55.951Z,64.44
2023-05-20T05:46:24.076Z,64.54
2023-05-20T05:48:52.256Z,64.04
2023-05-20T05:51:20.495Z,63.33
2023-05-20T05:53:48.617Z,63.18
2023-05-20T05:56:18.056Z,62.67
2023-05-20T05:58:48.232Z,63.32
2023-05-20T06:01:16.426Z,62.65
2023-05-20T06:03:44.615Z,62.26
2023-05-20T06:06:12.693Z,62.28
2023-05-20T06:08:40.956Z,62.87
2023-05-20T06:11:09.564Z,62.67
2023-05-20T06:13:39.579Z,62.98
2023-05-20T06:16:07.923Z,62.86
2023-05-20T06:18:36.026Z,63.69
2023-05-20T06:21:04.585Z,63.89
2023-05-20T06:23:32.710Z,63.85
2023-05-20T06:26:01.972Z,62.67
2023-05-20T06:28:31.840Z,62.19
2023-05-20T06:31:01.459Z,62.27
2023-05-20T06:33:29.822Z,62.15
2023-05-20T06:36:01.585Z,61.64
2023-05-20T06:38:30.148Z,62.47
2023-05-20T06:40:58.269Z,63.00
2023-05-20T06:43:26.399Z,63.59
2023-05-20T06:45:55.171Z,64.13
2023-05-20T06:48:24.616Z,64.22
2023-05-20T06:50:52.722Z,63.42
2023-05-20T06:53:21.420Z,63.10
2023-05-20T06:55:49.476Z,62.89
2023-05-20T06:58:17.518Z,62.91
2023-05-20T07:00:45.567Z,62.70
2023-05-20T07:03:13.669Z,63.14
2023-05-20T07:05:43.424Z,63.08
2023-05-20T07:08:11.539Z,63.39
2023-05-20T07:10:39.639Z,63.84
2023-05-20T07:13:07.722Z,63.84
2023-05-20T07:15:35.959Z,63.99
2023-05-20T07:18:04.534Z,63.83
2023-05-20T07:20:32.663Z,64.15
2023-05-20T07:23:04.025Z,64.74
2023-05-20T07:25:32.360Z,64.36
2023-05-20T07:28:00.624Z,64.60
2023-05-20T07:30:28.937Z,64.11
2023-05-20T07:32:57.072Z,63.81
2023-05-20T07:35:25.528Z,64.34
2023-05-20T07:37:53.626Z,63.97
2023-05-20T07:40:23.218Z,63.85
2023-05-20T07:42:51.309Z,62.97
2023-05-20T07:45:19.648Z,61.85
2023-05-20T07:47:47.775Z,61.76
2023-05-20T07:50:15.895Z,61.03
2023-05-20T07:52:55.338Z,60.12
2023-05-20T07:55:25.867Z,58.92
2023-05-20T07:57:53.994Z,58.44
2023-05-20T08:00:22.345Z,58.19
2023-05-20T08:02:50.658Z,57.79
2023-05-20T08:05:18.991Z,57.38
2023-05-20T08:07:47.311Z,57.86
2023-05-20T08:10:15.697Z,58.63
2023-05-20T08:12:45.164Z,58.51
2023-05-20T08:15:13.524Z,58.59
2023-05-20T08:17:41.659Z,58.43
2023-05-20T08:20:12.723Z,58.16
2023-05-20T08:22:41.148Z,58.11
2023-05-20T08:25:11.016Z,58.17
2023-05-20T08:27:39.122Z,57.84
2023-05-20T08:30:10.812Z,57.98
2023-05-20T08:32:38.926Z,57.38
2023-05-20T08:35:09.268Z,57.33
2023-05-20T08:37:37.329Z,57.71
2023-05-20T08:40:06.512Z,56.89
2023-05-20T08:42:34.725Z,56.08
2023-05-20T08:45:05.158Z,55.90
2023-05-20T08:47:35.229Z,55.34
2023-05-20T08:50:04.013Z,54.05
2023-05-20T08:52:35.978Z,53.04
2023-05-20T08:55:05.840Z,52.59
2023-05-20T08:57:34.470Z,52.56
2023-05-20T09:00:08.540Z,52.30
2023-05-20T09:02:39.762Z,53.21
2023-05-20T09:05:11.384Z,52.68
2023-05-20T09:07:39.657Z,53.42
2023-05-20T09:10:09.553Z,53.80
2023-05-20T09:12:38.629Z,53.89
2023-05-20T09:15:08.755Z,54.20
2023-05-20T09:17:37.424Z,54.97
2023-05-20T09:20:11.794Z,54.78
2023-05-20T09:22:41.543Z,54.66
2023-05-20T09:25:12.332Z,54.36
2023-05-20T09:27:41.521Z,54.29
2023-05-20T09:30:12.672Z,53.67
2023-05-20T09:32:41.155Z,53.58
2023-05-20T09:35:15.563Z,54.09
2023-05-20T09:37:47.802Z,54.72
2023-05-20T09:40:17.745Z,54.06
2023-05-20T09:42:54.818Z,53.77
2023-05-20T09:45:24.556Z,53.64
2023-05-20T09:47:53.605Z,54.31
2023-05-20T09:50:25.620Z,54.43
2023-05-20T09:52:55.658Z,54.60
2023-05-20T09:55:26.212Z,53.49
2023-05-20T09:57:55.905Z,51.68
2023-05-20T10:00:24.012Z,50.80
2023-05-20T10:02:54.030Z,50.70
2023-05-20T10:05:28.641Z,49.76
2023-05-20T10:08:52.123Z,50.71
2023-05-20T10:11:31.868Z,52.21
2023-05-20T10:14:27.019Z,52.25
2023-05-20T10:17:07.862Z,51.24
2023-05-20T10:19:36.534Z,52.00
2023-05-20T10:22:08.499Z,52.78
2023-05-20T10:24:40.802Z,52.35
2023-05-20T10:27:12.770Z,51.85
2023-05-20T10:32:27.218Z,50.47
2023-05-20T10:35:01.905Z,51.45
2023-05-20T10:37:33.670Z,51.37
2023-05-20T10:40:11.431Z,51.57
2023-05-20T10:42:40.346Z,51.35
2023-05-20T10:45:10.428Z,51.32
2023-05-20T10:47:43.873Z,50.58
2023-05-20T10:50:28.750Z,49.93
2023-05-20T10:53:06.237Z,49.85
2023-05-20T10:55:40.684Z,49.03
2023-05-20T10:58:08.989Z,48.88
2023-05-20T11:00:38.172Z,48.62
2023-05-20T11:03:08.082Z,49.34
2023-05-20T11:05:37.003Z,49.48
2023-05-20T11:08:20.607Z,49.60
2023-05-20T11:10:58.433Z,50.84
2023-05-20T11:13:27.642Z,51.14
2023-05-20T11:15:56.008Z,50.83
2023-05-20T11:18:24.117Z,51.88
2023-05-20T11:20:54.304Z,53.34
2023-05-20T11:23:24.267Z,53.39
2023-05-20T11:25:54.050Z,52.70
2023-05-20T11:28:22.711Z,51.50
2023-05-20T11:30:52.990Z,50.67
2023-05-20T11:33:21.779Z,51.02
2023-05-20T11:35:52.717Z,51.68
2023-05-20T11:38:23.155Z,51.44
2023-05-20T11:40:55.632Z,51.53
2023-05-20T11:43:25.246Z,51.26
2023-05-20T11:45:59.262Z,50.57
2023-05-20T11:48:27.466Z,50.14
2023-05-20T11:50:58.897Z,49.83
2023-05-20T11:53:30.372Z,49.84
2023-05-20T11:56:00.360Z,50.26
2023-05-20T11:58:31.672Z,50.78
2023-05-20T12:01:13.454Z,51.19
2023-05-20T12:03:48.574Z,51.28
2023-05-20T12:06:18.392Z,52.23
2023-05-20T12:08:48.379Z,52.18
2023-05-20T12:11:16.820Z,52.18
2023-05-20T12:13:44.903Z,52.35
2023-05-20T12:16:13.076Z,52.87
2023-05-20T12:18:41.222Z,53.20
2023-05-20T12:21:10.229Z,53.16
2023-05-20T12:23:38.269Z,53.08
2023-05-20T12:26:07.820Z,52.94
2023-05-20T12:28:36.211Z,52.99
2023-05-20T12:31:04.342Z,53.28
2023-05-20T12:33:32.489Z,53.02
2023-05-20T12:36:00.876Z,52.92
2023-05-20T12:38:29.244Z,52.79
2023-05-20T12:40:57.471Z,53.12
2023-05-20T12:43:26.842Z,53.47
2023-05-20T12:45:55.932Z,53.18
2023-05-20T12:48:24.017Z,53.21
2023-05-20T12:50:52.145Z,53.71
2023-05-20T12:53:20.231Z,53.27
2023-05-20T12:55:48.340Z,53.22
2023-05-20T12:58:16.389Z,52.71
2023-05-20T13:00:45.897Z,52.28
2023-05-20T13:03:14.106Z,52.71
2023-05-20T13:05:42.234Z,53.02
2023-05-20T13:08:12.481Z,52.89
2023-05-20T13:10:40.587Z,52.12
2023-05-20T13:13:08.653Z,52.28
2023-05-20T13:15:36.780Z,52.26
2023-05-20T13:18:07.061Z,52.21
2023-05-20T13:20:35.538Z,52.40
2023-05-20T13:23:03.911Z,52.42
2023-05-20T13:25:32.467Z,52.40
2023-05-20T13:28:00.592Z,52.40
2023-05-20T13:30:29.326Z,52.56
2023-05-20T13:32:57.538Z,52.41
2023-05-20T13:35:27.125Z,52.61
2023-05-20T13:37:55.187Z,52.27
2023-05-20T13:40:23.529Z,52.52
2023-05-20T13:42:51.641Z,52.35
2023-05-20T13:45:19.768Z,52.15
2023-05-20T13:47:48.145Z,51.86
2023-05-20T13:50:16.581Z,52.16
2023-05-20T13:52:46.055Z,51.89
2023-05-20T13:55:14.171Z,51.57
2023-05-20T13:57:42.225Z,51.57
2023-05-20T14:00:11.943Z,50.83
2023-05-20T14:02:40.092Z,50.95
2023-05-20T14:05:09.287Z,50.97
2023-05-20T14:07:37.773Z,51.04
2023-05-20T14:10:11.230Z,51.31
2023-05-20T14:12:39.394Z,50.73
2023-05-20T14:15:09.297Z,50.36
2023-05-20T14:17:37.433Z,50.09
2023-05-20T14:20:07.360Z,50.41
2023-05-20T14:22:35.772Z,50.83
2023-05-20T14:25:04.152Z,50.83
2023-05-20T14:27:33.713Z,50.10
2023-05-20T14:30:01.916Z,50.16
2023-05-20T14:32:30.255Z,49.97
2023-05-20T14:34:58.437Z,49.67
2023-05-20T14:37:27.975Z,49.43
2023-05-20T14:39:56.527Z,49.45
2023-05-20T14:42:24.945Z,50.02
2023-05-20T14:44:54.480Z,50.17
2023-05-20T14:47:22.935Z,50.46
2023-05-20T14:49:51.279Z,50.70
2023-05-20T14:52:20.077Z,50.45
2023-05-20T14:54:48.358Z,51.35
2023-05-20T14:57:16.862Z,50.82
2023-05-20T14:59:45.309Z,51.06
2023-05-20T15:02:16.062Z,51.22
2023-05-20T15:04:46.401Z,51.06
2023-05-20T15:07:15.099Z,51.51
2023-05-20T15:09:43.740Z,51.34
2023-05-20T15:12:12.445Z,51.16
2023-05-20T15:14:40.617Z,50.86
2023-05-20T15:17:09.021Z,51.05
2023-05-20T15:19:41.352Z,51.50
2023-05-20T15:22:09.994Z,51.26
2023-05-20T15:24:38.177Z,51.50
2023-05-20T15:27:07.023Z,51.03
2023-05-20T15:29:35.459Z,50.86
2023-05-20T15:32:03.677Z,50.64
2023-05-20T15:34:31.959Z,50.11
2023-05-20T15:37:01.477Z,50.01
2023-05-20T15:39:29.667Z,49.94
2023-05-20T15:41:59.391Z,50.16
2023-05-20T15:44:28.704Z,50.55
2023-05-20T15:46:57.111Z,50.33
2023-05-20T15:49:25.576Z,50.21
2023-05-20T15:52:02.913Z,50.44
2023-05-20T15:54:33.795Z,50.41
2023-05-20T15:57:02.528Z,50.28
2023-05-20T15:59:30.775Z,50.06
2023-05-20T16:01:59.133Z,50.50
2023-05-20T16:04:27.402Z,50.38
2023-05-20T16:06:55.876Z,50.17
2023-05-20T16:09:24.074Z,50.42
2023-05-20T16:11:53.670Z,50.05
2023-05-20T16:14:21.870Z,50.31
2023-05-20T16:16:50.143Z,50.07
2023-05-20T16:19:18.375Z,50.34
2023-05-20T16:21:46.760Z,50.38
2023-05-20T16:24:16.003Z,49.57
2023-05-20T16:26:44.124Z,49.96
2023-05-20T16:29:16.258Z,50.33
2023-05-20T16:31:46.557Z,50.58
2023-05-20T16:34:15.708Z,50.46
2023-05-20T16:36:45.061Z,50.47
2023-05-20T16:39:13.464Z,50.16
2023-05-20T16:41:42.001Z,50.37
2023-05-20T16:44:10.637Z,50.57
2023-05-20T16:46:40.135Z,50.74
2023-05-20T16:49:08.369Z,50.21
2023-05-20T16:51:36.538Z,50.58
2023-05-20T16:54:04.919Z,50.74
2023-05-20T16:56:33.355Z,50.71
2023-05-20T16:59:01.573Z,50.98
2023-05-20T17:01:29.917Z,51.31
2023-05-20T17:03:59.512Z,51.67
2023-05-20T17:06:27.724Z,51.93
2023-05-20T17:08:56.545Z,52.06
2023-05-20T17:11:24.701Z,52.35
2023-05-20T17:13:52.880Z,52.31
2023-05-20T17:16:21.202Z,52.11
2023-05-20T17:18:49.394Z,52.40
2023-05-20T17:21:20.381Z,52.44
2023-05-20T17:23:48.764Z,52.25
2023-05-20T17:26:17.332Z,52.03
2023-05-20T17:28:45.661Z,51.84
2023-05-20T17:31:13.836Z,52.11
2023-05-20T17:33:42.128Z,51.82
2023-05-20T17:36:10.480Z,52.02
2023-05-20T17:38:39.968Z,52.41
2023-05-20T17:41:08.097Z,52.51
2023-05-20T17:43:36.241Z,52.51
2023-05-20T17:46:04.728Z,52.75
2023-05-20T17:48:33.415Z,52.92
2023-05-20T17:51:01.850Z,52.73
2023-05-20T17:53:30.057Z,53.08
2023-05-20T17:55:59.611Z,52.98
2023-05-20T17:58:27.714Z,53.13
2023-05-20T18:00:56.054Z,53.39
2023-05-20T18:03:24.299Z,53.49
2023-05-20T18:05:55.094Z,53.72
2023-05-20T18:08:25.246Z,53.73
2023-05-20T18:10:53.581Z,54.59
2023-05-20T18:13:23.082Z,54.13
2023-05-20T18:15:52.422Z,54.43
2023-05-20T18:18:20.660Z,54.87
2023-05-20T18:20:48.826Z,54.66
2023-05-20T18:23:16.980Z,55.04
2023-05-20T18:25:45.311Z,55.46
2023-05-20T18:28:13.456Z,55.11
2023-05-20T18:30:42.996Z,54.55
2023-05-20T18:33:11.169Z,55.12
2023-05-20T18:35:39.860Z,55.13
2023-05-20T18:38:08.148Z,55.37
2023-05-20T18:40:36.780Z,55.53
2023-05-20T18:43:05.148Z,55.78
2023-05-20T18:45:33.296Z,56.20
2023-05-20T18:48:03.054Z,56.36
2023-05-20T18:50:31.328Z,56.47
2023-05-20T18:52:59.774Z,56.48
2023-05-20T18:55:28.171Z,57.25
2023-05-20T18:57:56.330Z,57.57
2023-05-20T19:00:24.579Z,57.43
2023-05-20T19:02:52.775Z,57.35
2023-05-20T19:05:23.015Z,57.52
2023-05-20T19:07:51.171Z,57.85
2023-05-20T19:10:19.344Z,57.46
2023-05-20T19:12:47.540Z,58.20
2023-05-20T19:15:16.299Z,58.46
2023-05-20T19:17:44.501Z,58.42
2023-05-20T19:20:14.289Z,58.02
2023-05-20T19:22:43.821Z,58.28
2023-05-20T19:25:12.449Z,58.63
2023-05-20T19:27:40.706Z,59.13
2023-05-20T19:30:10.897Z,58.98
2023-05-20T19:32:39.663Z,58.99
2023-05-20T19:35:08.960Z,58.84
2023-05-20T19:37:37.104Z,59.73
2023-05-20T19:40:08.260Z,59.62
2023-05-20T19:42:36.532Z,59.62
2023-05-20T19:45:05.655Z,60.00
2023-05-20T19:47:33.958Z,60.65
2023-05-20T19:50:02.455Z,60.84
2023-05-20T19:52:30.781Z,60.98
2023-05-20T19:54:59.162Z,61.57
2023-05-20T19:57:28.698Z,61.22
2023-05-20T19:59:56.908Z,61.25
2023-05-20T20:02:25.122Z,61.74
2023-05-20T20:04:53.445Z,62.23
2023-05-20T20:07:21.665Z,61.85
2023-05-20T20:09:51.581Z,62.00
2023-05-20T20:12:19.783Z,61.94
2023-05-20T20:14:49.300Z,62.30
2023-05-20T20:17:17.654Z,62.22
2023-05-20T20:19:47.992Z,62.91
2023-05-20T20:22:16.801Z,62.83
2023-05-20T20:24:44.976Z,62.79
2023-05-20T20:27:13.839Z,63.05
2023-05-20T20:29:42.100Z,63.60
2023-05-20T20:32:12.562Z,64.25
2023-05-20T20:34:41.446Z,64.08
2023-05-20T20:37:09.779Z,64.43
2023-05-20T20:39:37.932Z,64.20
2023-05-20T20:42:06.694Z,64.77
2023-05-20T20:44:34.842Z,65.15
2023-05-20T20:47:04.044Z,65.35
2023-05-20T20:49:34.179Z,65.30
2023-05-20T20:52:03.205Z,65.50
2023-05-20T20:54:32.780Z,66.16
2023-05-20T20:57:02.654Z,66.43
2023-05-20T20:59:30.970Z,66.16
2023-05-20T21:01:59.196Z,66.81
2023-05-20T21:04:27.934Z,66.59
2023-05-20T21:07:01.797Z,66.96
2023-05-20T21:09:30.430Z,67.42
2023-05-20T21:12:00.398Z,67.52
2023-05-20T21:14:28.532Z,67.35
2023-05-20T21:16:56.687Z,67.19
2023-05-20T21:19:24.937Z,67.33
2023-05-20T21:21:53.188Z,67.82
2023-05-20T21:24:22.746Z,68.33
2023-05-20T21:26:50.916Z,68.37
2023-05-20T21:29:19.081Z,68.41
2023-05-20T21:31:47.235Z,68.82
2023-05-20T21:34:15.444Z,68.57
2023-05-20T21:36:43.597Z,68.87
2023-05-20T21:39:11.722Z,68.77
2023-05-20T21:41:41.335Z,68.60
2023-05-20T21:44:09.435Z,69.22
2023-05-20T21:46:37.662Z,69.21
2023-05-20T21:49:05.905Z,69.04
2023-05-20T21:51:34.125Z,69.31
2023-05-20T21:54:02.293Z,69.92
2023-05-20T21:56:30.468Z,70.18
2023-05-20T21:58:59.991Z,70.40
2023-05-20T22:01:28.188Z,71.14
2023-05-20T22:03:56.595Z,71.22
2023-05-20T22:06:25.836Z,71.13
2023-05-20T22:08:54.647Z,71.06
2023-05-20T22:11:23.827Z,71.94
2023-05-20T22:13:53.566Z,71.04
2023-05-20T22:16:24.628Z,71.97
2023-05-20T22:18:53.871Z,72.45
2023-05-20T22:21:22.551Z,71.51
2023-05-20T22:23:50.817Z,72.28
2023-05-20T22:26:19.646Z,72.07
2023-05-20T22:28:48.159Z,72.00
2023-05-20T22:31:16.302Z,71.59
2023-05-20T22:33:45.847Z,71.83
2023-05-20T22:36:13.965Z,71.85
2023-05-20T22:38:42.788Z,71.68
2023-05-20T22:41:11.053Z,71.38
2023-05-20T22:43:39.198Z,71.26
2023-05-20T22:46:07.956Z,71.27
2023-05-20T22:48:36.176Z,71.50
2023-05-20T22:51:06.311Z,71.85
2023-05-20T22:53:34.898Z,72.52
2023-05-20T22:56:03.343Z,73.15
2023-05-20T22:58:39.198Z,72.93
2023-05-20T23:01:08.145Z,72.67
2023-05-20T23:03:36.588Z,72.92
2023-05-20T23:06:06.590Z,72.99
2023-05-20T23:08:34.828Z,72.67
2023-05-20T23:11:03.045Z,72.65
2023-05-20T23:13:31.331Z,73.55
2023-05-20T23:15:59.522Z,73.48
2023-05-20T23:18:27.710Z,73.48
2023-05-20T23:20:56.043Z,72.94
2023-05-20T23:23:31.309Z,74.24
2023-05-20T23:26:01.569Z,74.64
2023-05-20T23:28:29.832Z,75.35
2023-05-20T23:30:57.931Z,74.78
2023-05-20T23:33:26.206Z,74.71
2023-05-20T23:35:54.436Z,75.14
2023-05-20T23:38:22.948Z,74.66
2023-05-20T23:40:52.434Z,74.89
2023-05-20T23:43:20.601Z,74.48
2023-05-20T23:45:48.795Z,74.78
2023-05-20T23:48:17.685Z,75.70
2023-05-20T23:50:46.172Z,75.66
2023-05-20T23:53:14.381Z,76.09
2023-05-20T23:55:45.140Z,76.54
2023-05-20T23:58:14.720Z,76.48
